createdAt,value
2018-04-20T00:01:38.943Z,30.07
2018-04-20T00:04:08.815Z,28.33
2018-04-20T00:06:38.557Z,20.70
2018-04-20T00:09:08.518Z,18.93
2018-04-20T00:11:39.137Z,27.60
2018-04-20T00:14:09.019Z,30.53
2018-04-20T00:16:38.856Z,25.73
2018-04-20T00:19:08.890Z,30.93
2018-04-20T00:21:38.772Z,35.90
2018-04-20T00:24:08.718Z,30.00
2018-04-20T00:26:39.321Z,21.00
2018-04-20T00:29:09.174Z,18.40
2018-04-20T00:31:40.276Z,33.33
2018-04-20T00:34:10.140Z,25.13
2018-04-20T00:36:40.637Z,28.83
2018-04-20T00:39:10.417Z,21.00
2018-04-20T00:41:40.194Z,26.40
2018-04-20T00:44:09.919Z,29.20
2018-04-20T00:46:39.732Z,21.10
2018-04-20T00:49:09.478Z,17.63
2018-04-20T00:51:39.263Z,28.53
2018-04-20T00:54:28.645Z,23.83
2018-04-20T00:56:58.338Z,16.63
2018-04-20T00:59:28.015Z,18.03
2018-04-20T01:01:58.701Z,17.43
2018-04-20T01:04:28.526Z,29.73
2018-04-20T01:06:59.276Z,24.23
2018-04-20T01:09:29.907Z,23.07
2018-04-20T01:12:00.661Z,16.07
2018-04-20T01:14:30.573Z,41.07
2018-04-20T01:17:01.065Z,17.87
2018-04-20T01:19:30.855Z,31.03
2018-04-20T01:22:00.765Z,21.73
2018-04-20T01:24:30.604Z,11.70
2018-04-20T01:27:00.464Z,12.83
2018-04-20T01:29:30.187Z,13.70
2018-04-20T01:31:59.830Z,16.63
2018-04-20T01:34:29.584Z,16.23
2018-04-20T01:36:59.469Z,28.87
2018-04-20T01:39:29.346Z,19.53
2018-04-20T01:41:59.890Z,14.70
2018-04-20T01:44:29.774Z,12.30
2018-04-20T01:46:59.493Z,12.00
2018-04-20T01:49:29.231Z,19.10
2018-04-20T01:51:58.979Z,18.33
2018-04-20T01:54:29.478Z,16.07
2018-04-20T01:56:59.360Z,15.90
2018-04-20T01:59:29.353Z,19.30
2018-04-20T02:01:59.881Z,19.03
2018-04-20T02:04:30.172Z,25.33
2018-04-20T02:07:00.666Z,13.27
2018-04-20T02:09:30.571Z,17.17
2018-04-20T02:12:00.298Z,12.40
2018-04-20T02:14:30.163Z,10.40
2018-04-20T02:16:59.920Z,13.07
2018-04-20T02:19:30.928Z,16.20
2018-04-20T02:22:00.778Z,17.23
2018-04-20T02:24:30.638Z,13.87
2018-04-20T02:27:00.921Z,16.83
2018-04-20T02:29:30.642Z,15.57
2018-04-20T02:32:00.478Z,18.10
2018-04-20T02:34:31.112Z,14.10
2018-04-20T02:37:01.637Z,16.33
2018-04-20T02:39:32.519Z,12.93
2018-04-20T02:42:03.146Z,14.60
2018-04-20T02:44:32.981Z,20.00
2018-04-20T02:47:02.710Z,16.87
2018-04-20T02:49:32.551Z,10.43
2018-04-20T02:52:02.489Z,13.93
2018-04-20T02:54:32.347Z,16.83
2018-04-20T02:57:02.201Z,12.40
2018-04-20T02:59:31.941Z,13.93
2018-04-20T03:02:01.708Z,22.17
2018-04-20T03:04:31.726Z,16.93
2018-04-20T03:07:02.375Z,16.13
2018-04-20T03:09:32.119Z,16.20
2018-04-20T03:12:02.834Z,12.73
2018-04-20T03:14:32.718Z,12.47
2018-04-20T03:17:02.495Z,9.73
2018-04-20T03:19:32.291Z,10.00
2018-04-20T03:22:02.252Z,8.67
2018-04-20T03:24:32.885Z,12.53
2018-04-20T03:27:02.656Z,12.50
2018-04-20T03:29:33.203Z,9.83
2018-04-20T03:32:03.894Z,18.70
2018-04-20T03:34:33.656Z,11.70
2018-04-20T03:37:04.312Z,17.97
2018-04-20T03:39:34.092Z,11.90
2018-04-20T03:42:04.735Z,15.13
2018-04-20T03:44:35.433Z,13.33
2018-04-20T03:47:05.233Z,20.23
2018-04-20T03:49:35.806Z,17.87
2018-04-20T03:52:06.748Z,17.07
2018-04-20T03:54:37.435Z,18.17
2018-04-20T03:57:07.129Z,20.73
2018-04-20T03:59:37.488Z,7.50
2018-04-20T04:02:07.370Z,18.37
2018-04-20T04:04:37.038Z,11.60
2018-04-20T04:07:07.631Z,16.13
2018-04-20T04:09:37.480Z,10.87
2018-04-20T04:12:08.090Z,17.47
2018-04-20T04:14:37.923Z,10.43
2018-04-20T04:17:19.525Z,12.70
2018-04-20T04:20:15.079Z,7.73
2018-04-20T04:22:56.023Z,13.43
2018-04-20T04:25:36.873Z,9.13
2018-04-20T04:28:18.520Z,11.30
2018-04-20T04:30:48.286Z,7.73
2018-04-20T04:33:17.982Z,12.77
2018-04-20T04:35:48.622Z,8.60
2018-04-20T04:38:18.494Z,7.53
2018-04-20T04:40:48.240Z,7.30
2018-04-20T04:43:19.056Z,11.93
2018-04-20T04:45:48.896Z,10.83
2018-04-20T04:48:19.450Z,6.10
2018-04-20T04:50:49.335Z,8.70
2018-04-20T04:53:19.961Z,6.90
2018-04-20T04:55:50.521Z,16.13
2018-04-20T04:58:20.325Z,9.77
2018-04-20T05:00:51.331Z,23.00
2018-04-20T05:03:21.935Z,7.50
2018-04-20T05:05:51.973Z,7.90
2018-04-20T05:08:22.561Z,8.37
2018-04-20T05:10:52.294Z,14.50
2018-04-20T05:13:22.217Z,8.90
2018-04-20T05:15:52.024Z,9.17
2018-04-20T05:18:21.860Z,10.07
2018-04-20T05:20:52.603Z,8.33
2018-04-20T05:23:23.245Z,14.97
2018-04-20T05:25:52.936Z,6.63
2018-04-20T05:28:23.548Z,6.37
2018-04-20T05:30:53.266Z,5.53
2018-04-20T05:33:23.003Z,12.43
2018-04-20T05:35:53.016Z,9.43
2018-04-20T05:38:23.647Z,10.70
2018-04-20T05:40:53.601Z,16.27
2018-04-20T05:43:23.679Z,10.40
2018-04-20T05:45:54.477Z,10.30
2018-04-20T05:48:24.434Z,19.27
2018-04-20T05:50:54.414Z,12.17
2018-04-20T05:53:24.328Z,12.33
2018-04-20T05:55:54.372Z,10.80
2018-04-20T05:58:25.044Z,14.77
2018-04-20T06:00:55.433Z,12.63
2018-04-20T06:03:26.091Z,10.67
2018-04-20T06:05:56.138Z,11.90
2018-04-20T06:08:26.054Z,15.80
2018-04-20T06:10:56.037Z,11.33
2018-04-20T06:13:25.996Z,12.10
2018-04-20T06:15:56.312Z,18.90
2018-04-20T06:18:26.257Z,15.57
2018-04-20T06:20:57.499Z,12.37
2018-04-20T06:23:28.318Z,16.23
2018-04-20T06:25:58.208Z,14.77
2018-04-20T06:28:28.225Z,15.43
2018-04-20T06:30:58.056Z,14.87
2018-04-20T06:33:27.793Z,13.67
2018-04-20T06:35:59.640Z,14.07
2018-04-20T06:38:30.280Z,14.30
2018-04-20T06:41:00.787Z,12.60
2018-04-20T06:43:30.689Z,13.23
2018-04-20T06:46:00.532Z,13.80
2018-04-20T06:48:31.000Z,12.03
2018-04-20T06:51:00.845Z,16.77
2018-04-20T06:53:30.920Z,12.20
2018-04-20T06:56:00.804Z,16.67
2018-04-20T06:58:30.821Z,14.80
2018-04-20T07:01:00.658Z,18.60
2018-04-20T07:03:30.517Z,13.60
2018-04-20T07:06:00.299Z,12.97
2018-04-20T07:08:30.047Z,13.77
2018-04-20T07:10:59.748Z,14.43
2018-04-20T07:13:29.632Z,19.13
2018-04-20T07:15:59.399Z,13.87
2018-04-20T07:18:29.170Z,15.20
2018-04-20T07:20:58.929Z,15.23
2018-04-20T07:23:29.802Z,17.30
2018-04-20T07:25:59.674Z,16.20
2018-04-20T07:28:29.441Z,17.47
2018-04-20T07:30:59.182Z,21.97
2018-04-20T07:33:28.896Z,19.20
2018-04-20T07:35:58.650Z,16.20
2018-04-20T07:38:28.630Z,16.73
2018-04-20T07:40:58.389Z,15.00
2018-04-20T07:43:28.075Z,14.43
2018-04-20T07:45:58.808Z,18.40
2018-04-20T07:48:29.441Z,21.30
2018-04-20T07:50:59.353Z,13.00
2018-04-20T07:53:29.064Z,12.87
2018-04-20T07:55:58.943Z,12.70
2018-04-20T07:58:29.912Z,13.70
2018-04-20T08:01:01.216Z,17.23
2018-04-20T08:03:31.746Z,12.63
2018-04-20T08:06:02.168Z,12.63
2018-04-20T08:08:31.968Z,13.70
2018-04-20T08:11:01.800Z,19.03
2018-04-20T08:13:31.652Z,12.77
2018-04-20T08:16:02.284Z,12.93
2018-04-20T08:18:32.802Z,13.60
2018-04-20T08:21:03.433Z,10.63
2018-04-20T08:23:33.949Z,13.20
2018-04-20T08:26:03.817Z,11.47
2018-04-20T08:28:33.806Z,13.77
2018-04-20T08:31:03.567Z,9.50
2018-04-20T08:33:34.515Z,10.27
2018-04-20T08:36:04.227Z,10.90
2018-04-20T08:38:34.095Z,9.03
2018-04-20T08:41:05.042Z,10.87
2018-04-20T08:43:34.848Z,9.80
2018-04-20T08:46:04.687Z,10.47
2018-04-20T08:48:34.572Z,18.87
2018-04-20T08:51:04.390Z,9.67
2018-04-20T08:53:34.161Z,12.33
2018-04-20T08:56:04.096Z,8.50
2018-04-20T08:58:34.110Z,8.90
2018-04-20T09:01:03.837Z,9.60
2018-04-20T09:03:33.585Z,9.50
2018-04-20T09:06:03.470Z,8.30
2018-04-20T09:08:33.322Z,10.17
2018-04-20T09:11:03.037Z,13.90
2018-04-20T09:13:32.875Z,8.73
2018-04-20T09:16:03.426Z,12.63
2018-04-20T09:18:33.653Z,8.90
2018-04-20T09:21:03.531Z,9.20
2018-04-20T09:23:34.567Z,10.17
2018-04-20T09:26:05.109Z,10.50
2018-04-20T09:28:35.701Z,7.87
2018-04-20T09:31:05.561Z,7.37
2018-04-20T09:33:35.574Z,8.40
2018-04-20T09:36:05.325Z,12.70
2018-04-20T09:38:36.054Z,10.00
2018-04-20T09:41:05.912Z,8.50
2018-04-20T09:43:36.396Z,8.43
2018-04-20T09:46:06.143Z,12.50
2018-04-20T09:48:36.002Z,13.47
2018-04-20T09:51:05.890Z,9.33
2018-04-20T09:53:36.404Z,10.50
2018-04-20T09:56:07.026Z,9.57
2018-04-20T09:58:37.062Z,10.50
2018-04-20T10:01:11.027Z,9.77
2018-04-20T10:03:46.274Z,9.27
2018-04-20T10:06:16.802Z,9.00
2018-04-20T10:08:46.546Z,10.27
2018-04-20T10:11:17.042Z,9.60
2018-04-20T10:13:46.864Z,11.37
2018-04-20T10:16:16.607Z,13.30
2018-04-20T10:18:47.112Z,18.77
2018-04-20T10:21:17.805Z,10.27
2018-04-20T10:23:48.058Z,13.67
2018-04-20T10:26:19.564Z,9.33
2018-04-20T10:28:49.284Z,15.47
2018-04-20T10:31:19.478Z,12.93
2018-04-20T10:33:50.008Z,16.07
2018-04-20T10:36:20.079Z,17.27
2018-04-20T10:38:49.846Z,17.80
2018-04-20T10:41:19.714Z,15.03
2018-04-20T10:43:50.240Z,15.37
2018-04-20T10:46:20.305Z,17.57
2018-04-20T10:48:50.209Z,15.10
2018-04-20T10:51:20.685Z,15.30
2018-04-20T10:53:50.413Z,17.77
2018-04-20T10:56:20.365Z,12.90
2018-04-20T10:58:50.277Z,19.23
2018-04-20T11:01:20.839Z,11.13
2018-04-20T11:03:50.610Z,15.70
2018-04-20T11:06:21.148Z,12.40
2018-04-20T11:08:51.068Z,12.27
2018-04-20T11:11:20.819Z,13.00
2018-04-20T11:13:50.678Z,23.47
2018-04-20T11:16:21.164Z,16.47
2018-04-20T11:18:51.068Z,19.90
2018-04-20T11:21:20.924Z,16.03
2018-04-20T11:23:51.592Z,14.43
2018-04-20T11:26:21.690Z,16.60
2018-04-20T11:28:52.347Z,11.63
2018-04-20T11:31:22.198Z,20.67
2018-04-20T11:33:51.927Z,17.23
2018-04-20T11:36:22.549Z,16.13
2018-04-20T11:38:52.798Z,15.70
2018-04-20T11:41:23.412Z,21.73
2018-04-20T11:43:54.163Z,20.27
2018-04-20T11:46:24.192Z,20.50
2018-04-20T11:48:55.143Z,14.73
2018-04-20T11:51:25.020Z,13.10
2018-04-20T11:53:55.257Z,14.63
2018-04-20T11:56:25.044Z,27.73
2018-04-20T11:58:55.712Z,19.70
2018-04-20T12:01:26.455Z,17.40
2018-04-20T12:03:56.405Z,15.70
2018-04-20T12:06:26.216Z,13.63
2018-04-20T12:08:56.033Z,15.60
2018-04-20T12:11:25.762Z,16.33
2018-04-20T12:13:56.831Z,23.10
2018-04-20T12:16:26.616Z,19.93
2018-04-20T12:18:57.320Z,15.23
2018-04-20T12:21:27.106Z,15.30
2018-04-20T12:23:57.000Z,17.40
2018-04-20T12:26:26.910Z,13.03
2018-04-20T12:28:56.700Z,13.33
2018-04-20T12:31:27.401Z,17.60
2018-04-20T12:33:57.537Z,17.13
2018-04-20T12:36:27.701Z,18.73
2018-04-20T12:38:58.461Z,12.50
2018-04-20T12:41:28.343Z,14.10
2018-04-20T12:43:59.010Z,14.17
2018-04-20T12:46:28.913Z,10.17
2018-04-20T12:48:58.659Z,15.93
2018-04-20T12:51:28.603Z,8.27
2018-04-20T12:53:59.631Z,10.20
2018-04-20T12:56:29.505Z,10.00
2018-04-20T12:58:59.457Z,8.67
2018-04-20T13:01:29.400Z,10.27
2018-04-20T13:03:59.959Z,8.60
2018-04-20T13:06:29.857Z,13.67
2018-04-20T13:08:59.623Z,12.33
2018-04-20T13:11:29.534Z,12.50
2018-04-20T13:13:59.364Z,11.07
2018-04-20T13:16:30.092Z,19.13
2018-04-20T13:19:00.001Z,11.03
2018-04-20T13:21:29.901Z,12.17
2018-04-20T13:23:59.694Z,14.10
2018-04-20T13:26:29.576Z,11.63
2018-04-20T13:29:00.151Z,10.73
2018-04-20T13:31:30.113Z,10.47
2018-04-20T13:34:00.689Z,16.60
2018-04-20T13:36:30.458Z,15.23
2018-04-20T13:39:00.257Z,12.50
2018-04-20T13:41:30.939Z,15.93
2018-04-20T13:44:01.277Z,11.07
2018-04-20T13:46:31.054Z,21.07
2018-04-20T13:49:01.024Z,12.40
2018-04-20T13:51:31.847Z,13.50
2018-04-20T13:54:01.609Z,18.13
2018-04-20T13:56:31.426Z,14.00
2018-04-20T13:59:01.367Z,16.27
2018-04-20T14:01:31.270Z,16.67
2018-04-20T14:04:01.423Z,21.90
2018-04-20T14:06:31.192Z,14.00
2018-04-20T14:09:01.021Z,12.93
2018-04-20T14:11:30.999Z,16.37
2018-04-20T14:14:01.779Z,15.53
2018-04-20T14:16:31.736Z,21.27
2018-04-20T14:19:02.316Z,13.60
2018-04-20T14:21:32.193Z,20.63
2018-04-20T14:24:02.216Z,17.73
2018-04-20T14:26:32.358Z,20.60
2018-04-20T14:29:02.124Z,15.33
2018-04-20T14:31:33.298Z,17.17
2018-04-20T14:34:03.173Z,14.30
2018-04-20T14:36:33.200Z,17.50
2018-04-20T14:39:03.792Z,19.60
2018-04-20T14:41:33.816Z,15.33
2018-04-20T14:44:03.956Z,18.23
2018-04-20T14:46:34.613Z,15.00
2018-04-20T14:49:04.609Z,20.73
2018-04-20T14:51:34.618Z,19.77
2018-04-20T14:54:05.996Z,15.30
2018-04-20T14:56:36.853Z,21.70
2018-04-20T14:59:08.161Z,23.60
2018-04-20T15:01:39.315Z,17.97
2018-04-20T15:04:10.657Z,15.47
2018-04-20T15:06:40.696Z,15.90
2018-04-20T15:09:10.569Z,16.33
2018-04-20T15:11:40.574Z,19.77
2018-04-20T15:14:10.352Z,18.53
2018-04-20T15:16:40.465Z,16.67
2018-04-20T15:19:10.237Z,21.23
2018-04-20T15:21:40.177Z,16.70
2018-04-20T15:24:10.194Z,16.60
2018-04-20T15:26:40.307Z,22.50
2018-04-20T15:29:11.005Z,17.90
2018-04-20T15:31:41.563Z,17.00
2018-04-20T15:34:12.243Z,17.67
2018-04-20T15:36:42.129Z,22.40
2018-04-20T15:39:12.072Z,17.10
2018-04-20T15:41:41.952Z,21.50
2018-04-20T15:44:11.930Z,16.77
2018-04-20T15:46:41.794Z,18.03
2018-04-20T15:49:11.731Z,18.10
2018-04-20T15:51:42.273Z,20.73
2018-04-20T15:54:12.336Z,18.67
2018-04-20T15:56:43.024Z,24.53
2018-04-20T15:59:12.818Z,17.33
2018-04-20T16:01:42.578Z,17.27
2018-04-20T16:04:13.116Z,24.60
2018-04-20T16:06:43.821Z,17.80
2018-04-20T16:09:13.548Z,20.13
2018-04-20T16:11:44.300Z,18.50
2018-04-20T16:14:14.096Z,19.00
2018-04-20T16:16:44.785Z,22.10
2018-04-20T16:19:14.555Z,18.90
2018-04-20T16:21:45.391Z,35.23
2018-04-20T16:24:15.585Z,18.23
2018-04-20T16:26:45.977Z,18.13
2018-04-20T16:29:16.548Z,18.07
2018-04-20T16:31:48.603Z,25.30
2018-04-20T16:34:20.296Z,21.60
2018-04-20T16:36:50.826Z,21.80
2018-04-20T16:39:21.994Z,19.90
2018-04-20T16:41:52.693Z,20.87
2018-04-20T16:44:23.951Z,19.10
2018-04-20T16:46:55.416Z,22.03
2018-04-20T16:49:26.308Z,19.77
2018-04-20T16:51:56.871Z,25.08
2018-04-20T16:54:27.492Z,19.50
2018-04-20T16:56:58.155Z,19.73
2018-04-20T16:59:28.675Z,21.70
2018-04-20T17:01:59.392Z,19.52
2018-04-20T17:04:29.750Z,22.73
2018-04-20T17:07:00.849Z,24.77
2018-04-20T17:09:31.810Z,18.60
2018-04-20T17:12:02.474Z,27.07
2018-04-20T17:14:32.809Z,27.63
2018-04-20T17:17:03.787Z,23.40
2018-04-20T17:19:36.356Z,31.27
2018-04-20T17:22:07.681Z,37.03
2018-04-20T17:24:38.053Z,23.48
2018-04-20T17:27:09.586Z,22.73
2018-04-20T17:29:41.766Z,24.40
2018-04-20T17:32:12.637Z,20.75
2018-04-20T17:34:45.664Z,18.98
2018-04-20T17:37:16.853Z,18.10
2018-04-20T17:39:47.558Z,19.10
2018-04-20T17:42:19.231Z,22.05
2018-04-20T17:44:49.932Z,18.77
2018-04-20T17:47:21.272Z,21.90
2018-04-20T17:49:51.685Z,19.62
2018-04-20T17:52:22.304Z,22.53
2018-04-20T17:54:52.723Z,24.85
2018-04-20T17:57:22.846Z,23.97
2018-04-20T17:59:54.580Z,22.25
2018-04-20T18:02:24.671Z,23.60
2018-04-20T18:04:54.745Z,27.20
2018-04-20T18:07:24.618Z,20.63
2018-04-20T18:09:54.501Z,26.10
2018-04-20T18:12:24.979Z,21.70
2018-04-20T18:14:55.220Z,24.02
2018-04-20T18:17:25.083Z,19.27
2018-04-20T18:19:54.929Z,21.23
2018-04-20T18:22:24.877Z,23.60
2018-04-20T18:24:54.719Z,19.05
2018-04-20T18:27:25.320Z,25.20
2018-04-20T18:29:55.122Z,18.40
2018-04-20T18:32:24.874Z,21.87
2018-04-20T18:34:55.407Z,20.17
2018-04-20T18:37:26.011Z,18.17
2018-04-20T18:39:56.551Z,26.05
2018-04-20T18:42:27.323Z,18.00
2018-04-20T18:44:57.144Z,18.40
2018-04-20T18:47:27.202Z,17.17
2018-04-20T18:49:56.976Z,16.87
2018-04-20T18:52:27.332Z,21.33
2018-04-20T18:54:57.192Z,17.27
2018-04-20T18:57:27.366Z,16.03
2018-04-20T18:59:57.250Z,15.60
2018-04-20T19:02:26.987Z,18.70
2018-04-20T19:04:56.730Z,18.23
2018-04-20T19:07:27.257Z,21.17
2018-04-20T19:09:57.787Z,20.77
2018-04-20T19:12:28.420Z,18.70
2018-04-20T19:14:59.255Z,20.40
2018-04-20T19:17:29.765Z,21.57
2018-04-20T19:20:02.508Z,19.13
2018-04-20T19:22:33.268Z,21.50
2018-04-20T19:25:03.013Z,18.27
2018-04-20T19:27:33.828Z,18.10
2018-04-20T19:30:04.628Z,15.87
2018-04-20T19:32:34.707Z,23.13
2018-04-20T19:35:04.708Z,15.27
2018-04-20T19:37:35.857Z,15.30
2018-04-20T19:40:06.394Z,24.63
2018-04-20T19:42:36.149Z,16.48
2018-04-20T19:45:06.036Z,19.10
2018-04-20T19:47:35.970Z,21.17
2018-04-20T19:50:05.910Z,19.23
2018-04-20T19:52:36.151Z,20.37
2018-04-20T19:55:06.908Z,19.80
2018-04-20T19:57:36.663Z,23.53
2018-04-20T20:00:06.484Z,18.20
2018-04-20T20:02:36.236Z,19.03
2018-04-20T20:05:06.144Z,29.50
2018-04-20T20:07:36.809Z,32.37
2018-04-20T20:10:07.135Z,22.37
2018-04-20T20:12:37.244Z,26.37
2018-04-20T20:15:07.148Z,21.57
2018-04-20T20:17:36.898Z,30.23
2018-04-20T20:20:06.976Z,28.30
2018-04-20T20:22:36.716Z,26.52
2018-04-20T20:25:06.558Z,22.97
2018-04-20T20:27:37.483Z,22.47
2018-04-20T20:30:07.263Z,32.40
2018-04-20T20:32:37.150Z,23.67
2018-04-20T20:35:06.959Z,25.90
2018-04-20T20:37:37.473Z,24.00
2018-04-20T20:40:08.009Z,29.13
2018-04-20T20:42:39.573Z,28.17
2018-04-20T20:45:09.705Z,28.58
2018-04-20T20:47:39.485Z,28.50
2018-04-20T20:50:10.099Z,24.40
2018-04-20T20:52:39.985Z,28.97
2018-04-20T20:55:09.910Z,24.63
2018-04-20T20:57:39.662Z,28.63
2018-04-20T21:00:10.303Z,23.50
2018-04-20T21:02:40.836Z,21.93
2018-04-20T21:05:11.527Z,22.27
2018-04-20T21:07:41.309Z,24.37
2018-04-20T21:10:12.167Z,19.13
2018-04-20T21:12:42.123Z,24.90
2018-04-20T21:15:11.986Z,28.03
2018-04-20T21:17:41.841Z,23.93
2018-04-20T21:20:12.446Z,21.80
2018-04-20T21:22:42.404Z,16.63
2018-04-20T21:25:12.955Z,21.63
2018-04-20T21:27:42.829Z,21.50
2018-04-20T21:30:13.367Z,24.33
2018-04-20T21:32:43.862Z,27.83
2018-04-20T21:35:13.760Z,21.53
2018-04-20T21:37:43.634Z,22.47
2018-04-20T21:40:13.501Z,17.03
2018-04-20T21:42:43.283Z,19.03
2018-04-20T21:45:13.251Z,21.53
2018-04-20T21:47:42.990Z,17.08
2018-04-20T21:50:12.904Z,18.57
2018-04-20T21:52:42.808Z,17.17
2018-04-20T21:55:13.350Z,20.93
2018-04-20T21:57:43.249Z,20.33
2018-04-20T22:00:14.381Z,24.13
2018-04-20T22:02:45.133Z,19.85
2018-04-20T22:05:15.637Z,21.47
2018-04-20T22:07:46.312Z,22.27
2018-04-20T22:10:16.188Z,18.20
2018-04-20T22:12:46.682Z,23.63
2018-04-20T22:15:16.478Z,33.43
2018-04-20T22:17:46.212Z,24.08
2018-04-20T22:20:16.132Z,17.23
2018-04-20T22:22:45.872Z,23.60
2018-04-20T22:25:16.635Z,23.87
2018-04-20T22:27:46.550Z,27.00
2018-04-20T22:30:16.290Z,30.43
2018-04-20T22:32:46.220Z,30.52
2018-04-20T22:35:15.958Z,26.33
2018-04-20T22:37:46.632Z,24.77
2018-04-20T22:40:16.514Z,32.17
2018-04-20T22:42:46.421Z,24.27
2018-04-20T22:45:17.239Z,26.70
2018-04-20T22:47:47.900Z,32.23
2018-04-20T22:50:17.738Z,52.87
2018-04-20T22:52:47.576Z,21.83
2018-04-20T22:55:17.563Z,35.47
2018-04-20T22:57:47.423Z,24.85
2018-04-20T23:00:24.262Z,26.40
2018-04-20T23:02:54.884Z,28.80
2018-04-20T23:05:24.731Z,26.53
2018-04-20T23:07:54.575Z,31.20
2018-04-20T23:10:25.212Z,33.17
2018-04-20T23:12:54.992Z,35.28
2018-04-20T23:15:24.769Z,38.23
2018-04-20T23:17:54.575Z,38.33
2018-04-20T23:20:24.312Z,30.80
2018-04-20T23:22:54.209Z,30.97
2018-04-20T23:25:23.881Z,43.20
2018-04-20T23:27:53.914Z,46.13
2018-04-20T23:30:23.988Z,33.47
2018-04-20T23:32:54.233Z,32.77
2018-04-20T23:35:24.575Z,32.08
2018-04-20T23:37:54.434Z,41.57
2018-04-20T23:40:24.698Z,32.30
2018-04-20T23:42:54.805Z,31.30
2018-04-20T23:45:25.001Z,37.58
2018-04-20T23:47:54.859Z,36.30
2018-04-20T23:50:26.100Z,35.40
2018-04-20T23:52:56.049Z,34.83
2018-04-20T23:55:25.756Z,34.57
2018-04-20T23:57:55.497Z,35.53
